createdAt,value
2022-10-13T00:01:14.543Z,16.37
2022-10-13T00:03:42.943Z,16.55
2022-10-13T00:06:19.001Z,18.35
2022-10-13T00:08:46.705Z,18.85
2022-10-13T00:11:17.691Z,16.27
2022-10-13T00:13:46.201Z,18.57
2022-10-13T00:16:15.766Z,18.23
2022-10-13T00:18:43.177Z,17.05
2022-10-13T00:21:13.867Z,17.55
2022-10-13T00:23:41.701Z,18.50
2022-10-13T00:26:12.623Z,18.30
2022-10-13T00:28:41.625Z,17.00
2022-10-13T00:31:25.139Z,17.98
2022-10-13T00:33:53.360Z,17.52
2022-10-13T00:36:22.839Z,17.60
2022-10-13T00:38:50.413Z,19.23
2022-10-13T00:41:18.035Z,16.38
2022-10-13T00:44:39.449Z,17.02
2022-10-13T00:47:06.908Z,17.33
2022-10-13T00:49:34.442Z,16.23
2022-10-13T00:52:01.828Z,16.23
2022-10-13T00:54:30.041Z,16.33
2022-10-13T00:56:57.688Z,17.55
2022-10-13T00:59:29.334Z,17.45
2022-10-13T01:01:59.845Z,18.50
2022-10-13T01:04:31.705Z,15.47
2022-10-13T01:06:59.270Z,19.67
2022-10-13T01:09:26.494Z,16.00
2022-10-13T01:12:25.001Z,17.00
2022-10-13T01:15:15.884Z,14.40
2022-10-13T01:18:01.713Z,15.17
2022-10-13T01:20:56.733Z,14.98
2022-10-13T01:23:52.016Z,15.25
2022-10-13T01:26:19.276Z,15.52
2022-10-13T01:28:58.729Z,21.02
2022-10-13T01:31:44.626Z,15.33
2022-10-13T01:34:21.798Z,15.63
2022-10-13T01:36:55.059Z,19.35
2022-10-13T01:39:38.106Z,18.95
2022-10-13T01:42:15.493Z,15.95
2022-10-13T01:44:51.440Z,19.50
2022-10-13T01:47:21.038Z,16.88
2022-10-13T01:49:52.449Z,16.30
2022-10-13T01:52:24.245Z,15.15
2022-10-13T01:54:52.751Z,14.60
2022-10-13T01:57:46.517Z,19.43
2022-10-13T02:00:19.503Z,17.13
2022-10-13T02:02:58.778Z,17.10
2022-10-13T02:05:49.962Z,21.42
2022-10-13T02:08:31.355Z,17.80
2022-10-13T02:11:19.737Z,15.70
2022-10-13T02:14:14.149Z,17.98
2022-10-13T02:16:44.714Z,14.88
2022-10-13T02:19:17.435Z,17.60
2022-10-13T02:21:45.706Z,20.45
2022-10-13T02:24:14.064Z,15.37
2022-10-13T02:26:42.115Z,17.25
2022-10-13T02:29:13.832Z,14.13
2022-10-13T02:31:42.606Z,12.45
2022-10-13T02:34:10.432Z,11.77
2022-10-13T02:36:40.620Z,11.20
2022-10-13T02:39:10.460Z,10.43
2022-10-13T02:41:38.602Z,10.23
2022-10-13T02:44:06.731Z,13.95
2022-10-13T02:46:35.144Z,8.82
2022-10-13T02:49:02.381Z,9.13
2022-10-13T02:51:31.863Z,8.45
2022-10-13T02:54:01.544Z,9.10
2022-10-13T02:56:28.855Z,8.82
2022-10-13T02:58:56.263Z,11.05
2022-10-13T03:01:23.482Z,7.83
2022-10-13T03:03:50.770Z,7.97
2022-10-13T03:06:18.249Z,7.15
2022-10-13T03:08:45.467Z,10.27
2022-10-13T03:11:13.098Z,10.88
2022-10-13T03:13:41.617Z,6.93
2022-10-13T03:16:09.150Z,8.70
2022-10-13T03:18:36.425Z,10.43
2022-10-13T03:21:06.751Z,9.27
2022-10-13T03:23:34.568Z,7.25
2022-10-13T03:26:02.602Z,7.93
2022-10-13T03:28:29.877Z,7.20
2022-10-13T03:31:02.595Z,7.32
2022-10-13T03:33:30.237Z,9.77
2022-10-13T03:36:02.196Z,7.57
2022-10-13T03:38:31.363Z,8.13
2022-10-13T03:40:58.802Z,9.23
2022-10-13T03:43:27.231Z,9.40
2022-10-13T03:45:59.009Z,7.72
2022-10-13T03:48:26.897Z,8.35
2022-10-13T03:50:54.540Z,9.03
2022-10-13T03:53:22.588Z,7.93
2022-10-13T03:55:51.604Z,6.35
2022-10-13T03:58:19.733Z,7.10
2022-10-13T04:00:49.214Z,7.32
2022-10-13T04:03:16.989Z,6.30
2022-10-13T04:05:44.665Z,6.38
2022-10-13T04:08:12.741Z,9.65
2022-10-13T04:10:40.778Z,6.30
2022-10-13T04:13:08.665Z,10.40
2022-10-13T04:15:40.834Z,5.97
2022-10-13T04:18:09.538Z,7.13
2022-10-13T04:20:39.278Z,8.15
2022-10-13T04:23:07.441Z,8.43
2022-10-13T04:25:38.736Z,8.50
2022-10-13T04:28:08.326Z,6.93
2022-10-13T04:30:37.313Z,5.93
2022-10-13T04:33:04.959Z,8.50
2022-10-13T04:35:32.405Z,9.10
2022-10-13T04:37:59.858Z,9.82
2022-10-13T04:40:27.710Z,10.40
2022-10-13T04:42:55.265Z,8.45
2022-10-13T04:45:22.662Z,8.80
2022-10-13T04:47:50.205Z,7.65
2022-10-13T04:50:20.670Z,6.82
2022-10-13T04:52:48.263Z,6.77
2022-10-13T04:55:15.732Z,7.10
2022-10-13T04:57:45.079Z,6.60
2022-10-13T05:00:13.384Z,9.00
2022-10-13T05:02:40.833Z,9.10
2022-10-13T05:05:08.606Z,8.60
2022-10-13T05:07:35.942Z,8.15
2022-10-13T05:10:03.244Z,10.98
2022-10-13T05:12:30.560Z,10.60
2022-10-13T05:14:59.145Z,8.35
2022-10-13T05:17:35.037Z,9.07
2022-10-13T05:20:08.947Z,8.27
2022-10-13T05:22:36.270Z,9.25
2022-10-13T05:25:03.706Z,9.80
2022-10-13T05:27:31.023Z,8.43
2022-10-13T05:30:01.441Z,7.97
2022-10-13T05:32:28.980Z,8.18
2022-10-13T05:34:56.482Z,8.48
2022-10-13T05:37:23.841Z,10.48
2022-10-13T05:39:51.108Z,7.18
2022-10-13T05:42:18.688Z,10.47
2022-10-13T05:44:46.296Z,7.93
2022-10-13T05:47:13.666Z,7.97
2022-10-13T05:49:41.323Z,7.68
2022-10-13T05:52:12.190Z,9.70
2022-10-13T05:54:47.085Z,8.07
2022-10-13T05:57:18.979Z,9.95
2022-10-13T05:59:52.206Z,7.65
2022-10-13T06:02:22.061Z,8.15
2022-10-13T06:04:53.144Z,7.88
2022-10-13T06:07:21.014Z,8.87
2022-10-13T06:09:49.340Z,8.85
2022-10-13T06:12:16.669Z,7.53
2022-10-13T06:14:44.110Z,8.43
2022-10-13T06:17:11.968Z,8.50
2022-10-13T06:19:45.593Z,8.00
2022-10-13T06:22:13.078Z,8.77
2022-10-13T06:24:40.333Z,9.52
2022-10-13T06:27:09.586Z,8.20
2022-10-13T06:29:37.137Z,8.90
2022-10-13T06:32:04.779Z,8.60
2022-10-13T06:34:32.835Z,8.82
2022-10-13T06:37:00.547Z,6.45
2022-10-13T06:39:28.000Z,8.30
2022-10-13T06:41:55.609Z,12.18
2022-10-13T06:44:33.412Z,7.83
2022-10-13T06:47:05.740Z,7.72
2022-10-13T06:49:33.089Z,9.10
2022-10-13T06:52:00.441Z,8.38
2022-10-13T06:54:27.845Z,7.60
2022-10-13T06:56:55.123Z,10.43
2022-10-13T06:59:22.477Z,9.68
2022-10-13T07:01:51.820Z,12.52
2022-10-13T07:04:23.204Z,8.20
2022-10-13T07:06:51.227Z,7.78
2022-10-13T07:09:20.327Z,8.07
2022-10-13T07:11:48.451Z,15.95
2022-10-13T07:14:15.702Z,12.63
2022-10-13T07:16:43.205Z,7.28
2022-10-13T07:19:10.639Z,7.13
2022-10-13T07:21:40.740Z,7.50
2022-10-13T07:24:08.198Z,9.52
2022-10-13T07:26:36.862Z,7.93
2022-10-13T07:29:04.345Z,9.23
2022-10-13T07:31:31.626Z,8.70
2022-10-13T07:34:00.402Z,10.17
2022-10-13T07:36:28.669Z,9.25
2022-10-13T07:38:55.925Z,6.70
2022-10-13T07:41:23.375Z,8.32
2022-10-13T07:43:58.066Z,6.82
2022-10-13T07:46:26.203Z,5.73
2022-10-13T07:48:54.426Z,7.75
2022-10-13T07:51:23.473Z,6.15
2022-10-13T07:53:51.053Z,8.10
2022-10-13T07:56:18.568Z,6.45
2022-10-13T07:58:47.780Z,7.20
2022-10-13T08:01:16.692Z,10.98
2022-10-13T08:03:48.935Z,7.85
2022-10-13T08:06:18.832Z,6.70
2022-10-13T08:08:46.322Z,8.52
2022-10-13T08:11:17.934Z,7.93
2022-10-13T08:13:52.658Z,6.95
2022-10-13T08:16:23.806Z,8.13
2022-10-13T08:18:51.530Z,7.65
2022-10-13T08:24:11.586Z,6.80
2022-10-13T08:26:39.362Z,6.95
2022-10-13T08:29:21.461Z,7.38
2022-10-13T08:34:26.082Z,8.15
2022-10-13T08:36:56.508Z,8.57
2022-10-13T08:39:24.831Z,8.57
2022-10-13T08:41:53.399Z,7.72
2022-10-13T08:45:15.692Z,11.48
2022-10-13T08:47:29.155Z,64.30
2022-10-13T08:50:00.612Z,55.57
2022-10-13T08:52:43.198Z,34.75
2022-10-13T08:55:27.300Z,22.52
2022-10-13T08:57:54.757Z,13.65
2022-10-13T09:00:26.476Z,12.77
2022-10-13T09:02:53.755Z,7.90
2022-10-13T09:05:47.783Z,8.40
2022-10-13T09:08:20.503Z,11.40
2022-10-13T09:10:51.686Z,11.63
2022-10-13T09:13:20.620Z,9.98
2022-10-13T09:15:50.666Z,9.20
2022-10-13T09:18:19.364Z,9.65
2022-10-13T09:20:46.827Z,9.10
2022-10-13T09:23:21.813Z,7.53
2022-10-13T09:25:51.815Z,11.48
2022-10-13T09:28:23.379Z,8.10
2022-10-13T09:31:21.179Z,8.65
2022-10-13T09:34:00.162Z,8.02
2022-10-13T09:36:28.516Z,8.60
2022-10-13T09:39:16.698Z,7.55
2022-10-13T09:41:45.178Z,7.80
2022-10-13T09:44:32.294Z,6.50
2022-10-13T09:47:02.699Z,6.82
2022-10-13T09:49:45.715Z,6.40
2022-10-13T09:52:13.000Z,7.20
2022-10-13T09:54:43.898Z,8.17
2022-10-13T09:57:38.407Z,6.47
2022-10-13T10:00:22.505Z,10.82
2022-10-13T10:03:29.443Z,6.15
2022-10-13T10:06:07.248Z,8.55
2022-10-13T10:09:03.423Z,9.83
2022-10-13T10:11:37.899Z,9.50
2022-10-13T10:14:27.555Z,9.63
2022-10-13T10:17:10.304Z,6.65
2022-10-13T10:20:05.032Z,9.88
2022-10-13T10:22:44.343Z,8.47
2022-10-13T10:25:25.637Z,10.13
2022-10-13T10:28:23.061Z,9.43
2022-10-13T10:31:04.522Z,7.50
2022-10-13T10:33:59.447Z,9.30
2022-10-13T10:36:40.814Z,9.17
2022-10-13T10:39:27.746Z,10.30
2022-10-13T10:42:20.967Z,6.95
2022-10-13T10:44:53.740Z,5.97
2022-10-13T10:47:30.104Z,6.10
2022-10-13T10:50:05.341Z,6.47
2022-10-13T10:53:00.052Z,6.50
2022-10-13T10:55:37.244Z,7.65
2022-10-13T10:58:23.018Z,7.38
2022-10-13T11:00:59.496Z,6.55
2022-10-13T11:04:07.628Z,8.73
2022-10-13T11:06:36.692Z,6.40
2022-10-13T11:09:06.645Z,8.07
2022-10-13T11:11:37.932Z,6.78
2022-10-13T11:14:10.964Z,7.20
2022-10-13T11:17:07.331Z,7.57
2022-10-13T11:19:40.814Z,6.57
2022-10-13T11:22:08.176Z,5.60
2022-10-13T11:24:39.046Z,9.02
2022-10-13T11:27:11.980Z,7.22
2022-10-13T11:29:54.133Z,8.07
2022-10-13T11:32:33.622Z,6.25
2022-10-13T11:35:22.983Z,6.18
2022-10-13T11:38:07.339Z,6.97
2022-10-13T11:41:06.293Z,9.40
2022-10-13T11:44:04.115Z,6.70
2022-10-13T11:46:53.654Z,6.28
2022-10-13T11:49:43.229Z,5.78
2022-10-13T11:52:47.157Z,10.35
2022-10-13T11:55:42.507Z,7.60
2022-10-13T11:58:21.066Z,8.73
2022-10-13T12:01:12.430Z,7.90
2022-10-13T12:03:41.922Z,7.70
2022-10-13T12:06:35.378Z,8.15
2022-10-13T12:09:24.707Z,8.68
2022-10-13T12:12:01.610Z,8.70
2022-10-13T12:17:27.137Z,8.45
2022-10-13T12:19:57.384Z,7.65
2022-10-13T12:22:27.934Z,7.97
2022-10-13T12:25:02.138Z,9.03
2022-10-13T12:27:35.050Z,7.43
2022-10-13T12:30:04.159Z,6.95
2022-10-13T12:32:34.594Z,9.80
2022-10-13T12:35:19.939Z,9.68
2022-10-13T12:37:48.077Z,9.20
2022-10-13T12:40:18.213Z,9.55
2022-10-13T12:42:46.444Z,7.95
2022-10-13T12:45:20.798Z,10.32
2022-10-13T12:47:55.112Z,12.20
2022-10-13T12:50:25.899Z,7.23
2022-10-13T12:53:04.075Z,6.93
2022-10-13T12:55:32.162Z,6.43
2022-10-13T12:57:59.864Z,13.52
2022-10-13T13:00:29.111Z,12.75
2022-10-13T13:02:58.985Z,7.03
2022-10-13T13:05:33.557Z,8.38
2022-10-13T13:08:30.806Z,8.55
2022-10-13T13:11:02.834Z,8.77
2022-10-13T13:13:30.597Z,8.70
2022-10-13T13:16:18.728Z,10.30
2022-10-13T13:18:48.551Z,8.95
2022-10-13T13:21:20.461Z,8.73
2022-10-13T13:23:52.880Z,13.93
2022-10-13T13:26:23.778Z,7.43
2022-10-13T13:28:55.106Z,8.20
2022-10-13T13:31:25.120Z,7.38
2022-10-13T13:33:52.923Z,6.47
2022-10-13T13:36:22.625Z,7.30
2022-10-13T13:38:52.687Z,12.10
2022-10-13T13:41:20.583Z,8.23
2022-10-13T13:43:48.820Z,20.63
2022-10-13T13:46:25.698Z,9.20
2022-10-13T13:48:53.078Z,6.60
2022-10-13T13:51:21.589Z,8.77
2022-10-13T13:53:49.088Z,9.33
2022-10-13T13:56:20.207Z,9.25
2022-10-13T13:58:48.430Z,8.52
2022-10-13T14:01:16.134Z,6.90
2022-10-13T14:03:43.627Z,9.57
2022-10-13T14:06:19.149Z,6.20
2022-10-13T14:08:47.277Z,8.05
2022-10-13T14:11:14.657Z,8.20
2022-10-13T14:13:42.209Z,10.43
2022-10-13T14:16:18.043Z,7.38
2022-10-13T14:18:45.653Z,9.57
2022-10-13T14:21:13.012Z,9.60
2022-10-13T14:23:45.789Z,7.85
2022-10-13T14:26:14.505Z,8.68
2022-10-13T14:28:42.824Z,9.80
2022-10-13T14:31:10.935Z,5.97
2022-10-13T14:33:38.641Z,6.90
2022-10-13T14:36:07.658Z,11.40
2022-10-13T14:38:35.136Z,6.82
2022-10-13T14:41:04.558Z,9.23
2022-10-13T14:43:32.661Z,7.33
2022-10-13T14:46:05.391Z,6.88
2022-10-13T14:48:34.136Z,8.98
2022-10-13T14:51:09.220Z,9.23
2022-10-13T14:53:38.700Z,7.03
2022-10-13T14:56:20.462Z,7.13
2022-10-13T14:58:54.598Z,7.35
2022-10-13T15:01:24.505Z,10.27
2022-10-13T15:03:52.353Z,7.40
2022-10-13T15:06:22.488Z,6.95
2022-10-13T15:08:50.649Z,9.27
2022-10-13T15:11:20.301Z,6.30
2022-10-13T15:13:48.118Z,7.50
2022-10-13T15:16:22.284Z,6.82
2022-10-13T15:18:50.234Z,6.78
2022-10-13T15:21:18.583Z,8.67
2022-10-13T15:23:47.255Z,7.72
2022-10-13T15:26:16.316Z,9.55
2022-10-13T15:28:49.335Z,7.88
2022-10-13T15:31:18.946Z,9.52
2022-10-13T15:33:48.170Z,8.80
2022-10-13T15:36:16.136Z,7.90
2022-10-13T15:38:43.559Z,8.93
2022-10-13T15:41:11.828Z,10.02
2022-10-13T15:43:39.734Z,7.25
2022-10-13T15:46:09.203Z,10.57
2022-10-13T15:48:36.433Z,8.40
2022-10-13T15:51:12.773Z,7.38
2022-10-13T15:53:39.978Z,9.35
2022-10-13T15:56:08.627Z,6.95
2022-10-13T15:58:36.256Z,8.93
2022-10-13T16:01:10.785Z,9.38
2022-10-13T16:03:38.931Z,8.20
2022-10-13T16:06:08.674Z,8.00
2022-10-13T16:08:40.461Z,11.45
2022-10-13T16:11:20.258Z,7.70
2022-10-13T16:13:49.393Z,7.75
2022-10-13T16:16:17.379Z,10.48
2022-10-13T16:18:45.918Z,8.65
2022-10-13T16:21:18.504Z,8.70
2022-10-13T16:23:47.768Z,8.97
2022-10-13T16:26:16.090Z,10.40
2022-10-13T16:28:43.975Z,10.18
2022-10-13T16:31:15.574Z,8.88
2022-10-13T16:33:44.354Z,7.18
2022-10-13T16:36:19.708Z,8.37
2022-10-13T16:38:53.659Z,7.72
2022-10-13T16:41:21.197Z,7.47
2022-10-13T16:43:49.451Z,8.05
2022-10-13T16:46:19.205Z,8.93
2022-10-13T16:48:47.936Z,10.73
2022-10-13T16:51:21.464Z,8.93
2022-10-13T16:53:53.654Z,10.68
2022-10-13T16:56:25.085Z,9.00
2022-10-13T16:59:01.088Z,8.35
2022-10-13T17:01:29.700Z,7.80
2022-10-13T17:03:57.268Z,12.27
2022-10-13T17:06:27.076Z,7.68
2022-10-13T17:08:57.521Z,9.18
2022-10-13T17:11:30.352Z,13.10
2022-10-13T17:13:59.025Z,13.47
2022-10-13T17:16:31.559Z,8.93
2022-10-13T17:19:01.222Z,10.60
2022-10-13T17:21:36.439Z,10.25
2022-10-13T17:24:06.129Z,12.95
2022-10-13T17:26:34.063Z,9.50
2022-10-13T17:29:01.615Z,6.18
2022-10-13T17:31:28.929Z,9.18
2022-10-13T17:33:56.389Z,9.10
2022-10-13T17:36:27.017Z,8.45
2022-10-13T17:38:56.158Z,7.33
2022-10-13T17:41:24.263Z,9.30
2022-10-13T17:43:52.551Z,8.60
2022-10-13T17:46:41.323Z,8.05
2022-10-13T17:49:11.772Z,10.27
2022-10-13T17:51:41.092Z,9.30
2022-10-13T17:54:13.091Z,9.13
2022-10-13T17:56:43.478Z,11.52
2022-10-13T17:59:11.151Z,7.03
2022-10-13T18:01:39.429Z,9.45
2022-10-13T18:04:10.246Z,9.57
2022-10-13T18:06:44.134Z,8.55
2022-10-13T18:09:25.392Z,11.23
2022-10-13T18:11:54.070Z,10.43
2022-10-13T18:14:24.491Z,6.95
2022-10-13T18:16:52.926Z,6.93
2022-10-13T18:19:21.688Z,7.05
2022-10-13T18:21:49.577Z,9.02
2022-10-13T18:24:17.444Z,8.15
2022-10-13T18:26:44.745Z,7.25
2022-10-13T18:29:12.919Z,7.53
2022-10-13T18:31:42.072Z,8.43
2022-10-13T18:34:14.669Z,6.32
2022-10-13T18:36:47.567Z,6.97
2022-10-13T18:39:19.693Z,11.63
2022-10-13T18:41:49.530Z,8.10
2022-10-13T18:44:16.971Z,7.50
2022-10-13T18:46:44.566Z,6.75
2022-10-13T18:49:14.326Z,7.13
2022-10-13T18:51:43.855Z,7.75
2022-10-13T18:54:11.419Z,6.67
2022-10-13T18:56:39.233Z,8.43
2022-10-13T18:59:07.993Z,6.78
2022-10-13T19:01:36.771Z,7.03
2022-10-13T19:04:06.210Z,9.18
2022-10-13T19:06:34.177Z,7.47
2022-10-13T19:09:13.478Z,9.82
2022-10-13T19:11:41.507Z,8.85
2022-10-13T19:14:12.569Z,8.13
2022-10-13T19:16:43.837Z,7.32
2022-10-13T19:19:11.916Z,6.17
2022-10-13T19:21:39.973Z,7.63
2022-10-13T19:24:09.691Z,6.97
2022-10-13T19:26:37.343Z,7.82
2022-10-13T19:29:22.551Z,11.50
2022-10-13T19:31:50.099Z,9.03
2022-10-13T19:34:17.987Z,7.07
2022-10-13T19:36:47.003Z,6.35
2022-10-13T19:39:23.263Z,6.53
2022-10-13T19:41:53.177Z,8.38
2022-10-13T19:44:21.154Z,5.83
2022-10-13T19:46:49.254Z,7.13
2022-10-13T19:49:19.816Z,8.20
2022-10-13T19:51:49.361Z,8.13
2022-10-13T19:54:18.376Z,7.60
2022-10-13T19:56:47.966Z,6.80
2022-10-13T19:59:15.981Z,8.25
2022-10-13T20:01:43.870Z,7.13
2022-10-13T20:04:16.164Z,8.70
2022-10-13T20:06:48.370Z,6.43
2022-10-13T20:09:16.283Z,7.07
2022-10-13T20:11:48.110Z,9.48
2022-10-13T20:14:16.680Z,9.43
2022-10-13T20:16:44.328Z,7.20
2022-10-13T20:19:13.544Z,7.03
2022-10-13T20:21:42.874Z,12.23
2022-10-13T20:24:12.352Z,7.40
2022-10-13T20:26:41.164Z,7.65
2022-10-13T20:29:08.770Z,5.72
2022-10-13T20:31:36.583Z,8.48
2022-10-13T20:34:03.996Z,6.33
2022-10-13T20:36:35.978Z,6.70
2022-10-13T20:39:05.177Z,6.85
2022-10-13T20:41:34.108Z,8.93
2022-10-13T20:44:03.579Z,7.50
2022-10-13T20:46:34.093Z,6.67
2022-10-13T20:49:16.583Z,7.40
2022-10-13T20:51:44.895Z,7.45
2022-10-13T20:54:14.071Z,7.85
2022-10-13T20:56:42.527Z,6.78
2022-10-13T20:59:12.439Z,7.90
2022-10-13T21:01:39.963Z,8.52
2022-10-13T21:04:07.901Z,6.00
2022-10-13T21:06:36.035Z,6.22
2022-10-13T21:09:05.093Z,7.97
2022-10-13T21:11:33.666Z,8.87
2022-10-13T21:14:06.628Z,7.93
2022-10-13T21:16:34.561Z,6.45
2022-10-13T21:19:02.790Z,6.65
2022-10-13T21:21:32.614Z,6.15
2022-10-13T21:24:02.677Z,8.07
2022-10-13T21:26:32.420Z,7.90
2022-10-13T21:29:01.924Z,7.43
2022-10-13T21:31:30.915Z,7.00
2022-10-13T21:33:58.279Z,6.95
2022-10-13T21:36:28.178Z,7.27
2022-10-13T21:38:59.182Z,7.03
2022-10-13T21:41:27.826Z,8.25
2022-10-13T21:43:55.891Z,8.10
2022-10-13T21:46:28.400Z,8.05
2022-10-13T21:49:01.647Z,7.73
2022-10-13T21:51:33.793Z,6.57
2022-10-13T21:54:04.896Z,7.55
2022-10-13T21:56:32.993Z,8.05
2022-10-13T21:59:01.407Z,7.70
2022-10-13T22:01:29.006Z,9.17
2022-10-13T22:04:01.107Z,7.43
2022-10-13T22:06:30.368Z,8.15
2022-10-13T22:08:59.157Z,5.88
2022-10-13T22:11:30.382Z,8.23
2022-10-13T22:13:59.913Z,9.60
2022-10-13T22:16:36.572Z,8.68
2022-10-13T22:19:04.263Z,7.00
2022-10-13T22:21:37.812Z,7.68
2022-10-13T22:24:07.132Z,7.30
2022-10-13T22:26:36.692Z,7.50
2022-10-13T22:29:06.106Z,8.40
2022-10-13T22:31:33.713Z,8.45
2022-10-13T22:34:08.013Z,8.25
2022-10-13T22:36:35.535Z,7.03
2022-10-13T22:39:04.699Z,6.43
2022-10-13T22:41:33.997Z,5.72
2022-10-13T22:44:02.892Z,6.60
2022-10-13T22:46:33.108Z,7.85
2022-10-13T22:49:00.653Z,7.53
2022-10-13T22:51:29.893Z,7.17
2022-10-13T22:53:58.137Z,7.40
2022-10-13T22:56:27.770Z,6.97
2022-10-13T22:59:09.402Z,6.68
2022-10-13T23:01:37.395Z,12.15
2022-10-13T23:04:04.786Z,6.27
2022-10-13T23:06:34.551Z,7.82
2022-10-13T23:09:07.361Z,7.22
2022-10-13T23:11:36.002Z,7.53
2022-10-13T23:14:06.281Z,7.25
2022-10-13T23:16:34.125Z,6.63
2022-10-13T23:19:01.484Z,8.80
2022-10-13T23:21:30.408Z,6.75
2022-10-13T23:24:02.409Z,6.50
2022-10-13T23:26:30.732Z,6.38
2022-10-13T23:28:59.279Z,6.43
2022-10-13T23:31:28.013Z,7.22
2022-10-13T23:33:55.724Z,6.88
2022-10-13T23:36:26.191Z,7.72
2022-10-13T23:39:11.973Z,7.45
2022-10-13T23:41:39.437Z,6.23
2022-10-13T23:44:06.742Z,7.93
2022-10-13T23:46:34.041Z,6.80
2022-10-13T23:49:01.296Z,7.65
2022-10-13T23:51:28.559Z,7.60
2022-10-13T23:53:56.374Z,7.37
2022-10-13T23:56:23.952Z,7.03
2022-10-13T23:58:51.742Z,8.02
